Time;durP1;ratioP1;P1;durP2;ratioP2;P2;SDS_P1;SDS_P2;PMS_P1;PMS_P2;Temp;Humidity;BMP_temperature;BMP_pressure;BME280_temperature;BME280_humidity;BME280_pressure;Samples;Min_cycle;Max_cycle;Signal;HPM_P1;HPM_P2
2022/12/11 00:03:07;;;;;;;8.53;5.77;;;16.50;56.70;;;;;;10482950;28;20105;-27
2022/12/11 00:08:09;;;;;;;8.60;5.45;;;16.90;56.40;;;;;;10478465;28;20044;-30
2022/12/11 00:13:11;;;;;;;10.97;7.90;;;16.60;56.70;;;;;;10467839;28;20113;-29
2022/12/11 00:18:14;;;;;;;11.53;6.87;;;16.70;57.00;;;;;;10484157;28;20094;-31
2022/12/11 00:23:16;;;;;;;8.73;5.45;;;16.60;57.00;;;;;;10485253;28;20070;-28
2022/12/11 00:28:18;;;;;;;7.13;4.70;;;16.80;56.20;;;;;;10487258;28;20600;-27
2022/12/11 00:33:21;;;;;;;9.13;4.95;;;16.90;56.00;;;;;;10487335;28;20422;-27
2022/12/11 00:38:23;;;;;;;8.48;5.28;;;17.00;55.80;;;;;;10481979;28;20086;-27
2022/12/11 00:43:25;;;;;;;7.60;4.75;;;17.00;55.60;;;;;;10491750;28;20051;-27
2022/12/11 00:48:29;;;;;;;6.18;3.88;;;16.90;55.80;;;;;;10485187;28;20118;-27
2022/12/11 00:53:31;;;;;;;6.13;4.43;;;16.90;55.70;;;;;;10486595;28;20167;-26
2022/12/11 00:58:33;;;;;;;6.40;4.00;;;17.00;55.50;;;;;;10476533;28;20051;-29
2022/12/11 01:03:36;;;;;;;5.67;3.37;;;16.90;55.60;;;;;;10487113;28;20476;-29
2022/12/11 01:08:38;;;;;;;5.07;3.38;;;16.90;55.50;;;;;;10480988;28;20076;-28
2022/12/11 01:13:41;;;;;;;5.13;3.33;;;16.90;55.60;;;;;;10477365;28;20089;-28
2022/12/11 01:18:44;;;;;;;4.28;3.28;;;16.90;55.50;;;;;;10473166;28;20098;-27
2022/12/11 01:23:46;;;;;;;4.18;3.38;;;17.00;55.30;;;;;;10490882;28;20059;-31
2022/12/11 01:28:49;;;;;;;6.23;3.40;;;16.90;55.50;;;;;;10471538;28;20045;-28
2022/12/11 01:33:54;;;;;;;4.10;2.85;;;16.80;55.60;;;;;;10487207;28;20102;-29
2022/12/11 01:38:56;;;;;;;3.45;3.15;;;16.80;55.40;;;;;;10485321;28;20151;-30
2022/12/11 01:44:05;;;;;;;4.50;3.25;;;16.90;55.50;;;;;;10487715;28;20068;-28
2022/12/11 01:49:11;;;;;;;3.78;3.25;;;16.90;55.30;;;;;;10485315;28;20098;-29
2022/12/11 01:54:16;;;;;;;3.67;2.90;;;16.90;55.30;;;;;;10473837;28;20541;-29
2022/12/11 01:59:20;;;;;;;3.75;2.67;;;16.80;55.40;;;;;;10475391;28;20045;-29
2022/12/11 02:04:24;;;;;;;2.97;2.40;;;16.90;55.50;;;;;;10463535;28;20490;-29
2022/12/11 02:09:29;;;;;;;3.45;2.60;;;16.80;55.20;;;;;;10476316;28;20073;-28
2022/12/11 02:14:38;;;;;;;3.88;2.65;;;16.80;55.10;;;;;;10461151;28;20533;-29
2022/12/11 02:20:00;;;;;;;3.50;2.72;;;16.90;55.10;;;;;;10473788;28;20067;-30
2022/12/11 02:25:13;;;;;;;3.92;2.95;;;16.80;55.30;;;;;;10479502;28;20382;-28
2022/12/11 02:30:17;;;;;;;3.63;3.08;;;16.90;55.10;;;;;;10475273;28;20072;-27
2022/12/11 02:35:22;;;;;;;4.32;2.50;;;16.80;55.20;;;;;;10471558;28;20060;-29
2022/12/11 02:40:29;;;;;;;3.15;2.20;;;16.80;55.30;;;;;;10479068;28;20072;-26
2022/12/11 02:45:34;;;;;;;3.25;2.40;;;16.80;55.20;;;;;;10481864;28;20413;-28
2022/12/11 02:50:38;;;;;;;3.25;2.72;;;16.80;55.10;;;;;;10472695;28;20110;-29
2022/12/11 02:55:42;;;;;;;3.58;2.70;;;16.80;55.20;;;;;;10475514;28;20718;-27
2022/12/11 03:00:46;;;;;;;4.13;3.15;;;16.70;55.20;;;;;;10479955;28;20124;-27
2022/12/11 03:05:48;;;;;;;4.00;3.10;;;16.90;55.10;;;;;;10487727;28;20056;-27
2022/12/11 03:10:50;;;;;;;9.05;5.20;;;16.70;55.10;;;;;;10483792;28;20051;-28
2022/12/11 03:16:04;;;;;;;5.05;3.17;;;16.80;55.10;;;;;;10474075;28;20057;-30
2022/12/11 03:21:13;;;;;;;6.00;2.80;;;16.70;55.10;;;;;;10472780;28;20878;-27
2022/12/11 03:26:18;;;;;;;3.55;2.72;;;16.70;55.20;;;;;;10476522;28;20470;-29
2022/12/11 03:31:28;;;;;;;3.13;2.50;;;16.70;55.20;;;;;;10479254;28;20044;-27
2022/12/11 03:36:33;;;;;;;2.67;2.47;;;16.60;55.20;;;;;;10470128;28;20079;-27
2022/12/11 03:41:37;;;;;;;2.95;2.65;;;16.70;55.10;;;;;;10493273;28;20555;-28
2022/12/11 03:46:43;;;;;;;3.80;2.80;;;16.60;55.20;;;;;;10495526;28;20132;-30
2022/12/11 03:51:48;;;;;;;3.03;2.55;;;16.60;55.10;;;;;;10496867;28;20040;-29
2022/12/11 03:56:53;;;;;;;4.53;2.70;;;16.70;55.10;;;;;;10488635;28;20041;-24
2022/12/11 04:01:56;;;;;;;3.13;2.35;;;16.70;54.90;;;;;;10487779;28;20090;-31
2022/12/11 04:06:58;;;;;;;3.53;2.25;;;16.70;55.00;;;;;;10492392;28;20044;-26
2022/12/11 04:12:00;;;;;;;3.60;2.87;;;16.70;54.90;;;;;;10480683;28;20094;-29
2022/12/11 04:17:03;;;;;;;2.97;2.53;;;16.70;54.80;;;;;;10480927;28;20078;-30
2022/12/11 04:32:46;;;;;;;3.97;2.80;;;16.70;54.80;;;;;;10490222;28;20123;-28
2022/12/11 04:37:48;;;;;;;3.35;2.40;;;16.60;54.70;;;;;;10487571;28;20523;-28
2022/12/11 04:42:50;;;;;;;2.80;2.40;;;16.60;54.80;;;;;;10489191;28;20473;-26
2022/12/11 04:47:53;;;;;;;3.20;2.38;;;16.60;54.90;;;;;;10478592;28;20048;-31
2022/12/11 04:52:55;;;;;;;3.63;2.70;;;16.70;54.70;;;;;;10487784;28;20481;-29
2022/12/11 04:57:57;;;;;;;;;;;16.60;55.00;;;;;;10491410;28;20056;-27
2022/12/11 05:03:00;;;;;;;3.75;2.30;;;16.60;54.80;;;;;;10483654;28;19956;-27
2022/12/11 05:08:02;;;;;;;4.28;2.60;;;16.50;54.90;;;;;;10482555;28;20072;-27
2022/12/11 05:13:04;;;;;;;3.73;2.57;;;16.50;54.90;;;;;;10486709;28;20049;-28
2022/12/11 05:18:07;;;;;;;3.33;2.30;;;16.60;54.80;;;;;;10486482;28;20642;-27
2022/12/11 05:23:09;;;;;;;3.13;2.42;;;16.50;55.00;;;;;;10469323;28;20044;-26
2022/12/11 05:28:11;;;;;;;3.17;2.37;;;16.50;54.80;;;;;;10479216;28;20078;-28
2022/12/11 05:33:14;;;;;;;2.20;2.00;;;16.60;54.60;;;;;;10493192;28;20102;-26
2022/12/11 05:38:16;;;;;;;2.10;1.90;;;16.90;54.40;;;;;;10490418;28;20585;-26
2022/12/11 05:43:18;;;;;;;2.77;2.03;;;17.10;54.00;;;;;;10484792;28;20040;-26
2022/12/11 05:48:22;;;;;;;1.70;1.60;;;17.30;53.80;;;;;;10478278;28;20045;-29
2022/12/11 05:53:24;;;;;;;2.63;2.13;;;17.40;53.70;;;;;;10490981;28;20075;-28
2022/12/11 05:58:26;;;;;;;2.20;2.00;;;17.40;53.70;;;;;;10483265;28;20489;-27
2022/12/11 06:03:29;;;;;;;2.00;1.65;;;17.50;53.60;;;;;;10489958;28;20123;-27
2022/12/11 06:08:32;;;;;;;2.63;2.10;;;17.50;53.70;;;;;;10484889;28;20079;-27
2022/12/11 06:13:35;;;;;;;2.58;2.10;;;17.50;53.60;;;;;;10484478;28;20045;-27
2022/12/11 06:18:40;;;;;;;2.65;2.00;;;17.60;53.50;;;;;;10468020;28;20106;-29
2022/12/11 06:23:42;;;;;;;2.72;1.85;;;17.60;53.60;;;;;;10485189;28;20519;-28
2022/12/11 06:28:45;;;;;;;2.65;1.95;;;17.60;54.20;;;;;;10486741;28;20044;-29
2022/12/11 06:33:48;;;;;;;1.98;1.77;;;17.60;53.60;;;;;;10488037;28;20076;-31
2022/12/11 06:38:51;;;;;;;2.25;1.95;;;17.70;53.60;;;;;;10474282;28;20052;-26
2022/12/11 06:43:53;;;;;;;1.75;1.63;;;17.60;53.60;;;;;;10474746;28;20095;-27
2022/12/11 06:48:56;;;;;;;1.98;1.70;;;17.60;53.70;;;;;;10471823;28;20166;-27
2022/12/11 06:53:58;;;;;;;2.85;1.80;;;17.60;53.70;;;;;;10479077;28;20068;-29
2022/12/11 06:59:00;;;;;;;3.85;1.58;;;17.60;53.60;;;;;;10486370;28;20088;-28
2022/12/11 07:15:29;;;;;;;2.55;1.90;;;17.60;53.20;;;;;;10527271;27;20324;-28
2022/12/11 07:20:31;;;;;;;2.20;1.70;;;17.60;53.80;;;;;;10513397;28;20048;-26
2022/12/11 07:25:33;;;;;;;2.30;1.40;;;17.60;53.60;;;;;;10502548;28;20141;-28
2022/12/11 07:30:38;;;;;;;2.28;2.05;;;17.60;53.70;;;;;;10501005;28;20155;-28
2022/12/11 07:35:40;;;;;;;1.58;1.45;;;17.50;53.80;;;;;;10505127;28;20064;-27
2022/12/11 07:40:42;;;;;;;2.33;1.50;;;17.60;53.60;;;;;;10505231;28;20044;-28
2022/12/11 07:45:45;;;;;;;2.25;1.70;;;17.60;53.70;;;;;;10501988;28;20053;-26
2022/12/11 07:50:47;;;;;;;2.75;1.73;;;17.60;53.70;;;;;;10491319;28;20071;-28
2022/12/11 07:55:49;;;;;;;1.88;1.58;;;17.60;53.70;;;;;;10506164;28;20445;-29
2022/12/11 08:00:52;;;;;;;1.90;1.50;;;17.60;53.60;;;;;;10515768;28;20053;-29
2022/12/11 08:05:54;;;;;;;2.55;1.50;;;17.60;53.70;;;;;;10525428;28;20485;-27
2022/12/11 08:10:56;;;;;;;2.00;1.35;;;17.60;53.50;;;;;;10508576;28;20056;-27
2022/12/11 08:16:02;;;;;;;2.45;1.58;;;17.60;53.50;;;;;;10513099;28;20102;-27
2022/12/11 08:21:06;;;;;;;2.70;2.00;;;17.70;53.40;;;;;;10519217;28;20075;-27
2022/12/11 08:26:14;;;;;;;2.15;1.30;;;17.70;53.40;;;;;;10493131;28;20098;-26
2022/12/11 08:31:18;;;;;;;3.38;1.27;;;17.70;53.30;;;;;;10496586;28;20048;-26
2022/12/11 08:36:21;;;;;;;6.75;1.83;;;17.70;53.30;;;;;;10485707;28;20051;-30
2022/12/11 08:41:25;;;;;;;4.53;1.92;;;17.70;53.50;;;;;;10493649;28;20511;-27
2022/12/11 08:46:31;;;;;;;4.05;1.50;;;17.70;53.50;;;;;;10491604;28;20065;-25
2022/12/11 08:51:33;;;;;;;1.83;1.55;;;18.00;53.70;;;;;;10481400;28;20056;-27
2022/12/11 08:56:35;;;;;;;4.43;1.67;;;18.20;53.40;;;;;;10495755;28;20429;-26
2022/12/11 09:01:38;;;;;;;5.55;2.72;;;18.50;54.00;;;;;;10486318;28;20493;-27
2022/12/11 09:06:40;;;;;;;9.48;3.03;;;18.60;54.10;;;;;;10494631;28;20593;-29
2022/12/11 09:11:42;;;;;;;11.60;4.05;;;18.90;53.00;;;;;;10491608;28;20230;-27
2022/12/11 09:16:45;;;;;;;;;;;19.00;52.60;;;;;;10484035;28;20048;-27
2022/12/11 09:21:47;;;;;;;14.00;3.95;;;19.00;52.40;;;;;;10489869;28;20450;-26
2022/12/11 09:26:49;;;;;;;11.43;3.20;;;18.80;52.90;;;;;;10485419;28;20091;-26
2022/12/11 09:31:53;;;;;;;9.80;2.13;;;19.00;53.30;;;;;;10485934;28;20489;-35
2022/12/11 09:36:55;;;;;;;11.02;1.63;;;19.70;54.00;;;;;;10477288;28;20058;-30
2022/12/11 09:42:03;;;;;;;5.15;2.17;;;19.40;52.90;;;;;;10485483;28;20048;-27
2022/12/11 09:47:19;;;;;;;7.60;2.35;;;18.90;53.70;;;;;;10478211;28;20083;-26
2022/12/11 09:52:28;;;;;;;12.82;3.55;;;18.80;54.20;;;;;;10485009;28;20049;-27
2022/12/11 09:57:46;;;;;;;5.90;3.15;;;18.60;54.30;;;;;;10481611;28;20136;-26
2022/12/11 10:03:14;;;;;;;8.43;2.53;;;18.50;54.30;;;;;;10488867;28;20126;-26
2022/12/11 10:08:23;;;;;;;5.40;2.80;;;18.50;54.40;;;;;;10487465;28;20102;-27
2022/12/11 10:13:35;;;;;;;6.35;2.67;;;18.50;54.40;;;;;;10484050;28;20367;-27
2022/12/11 10:18:38;;;;;;;;;;;18.40;54.50;;;;;;10471990;28;20036;-27
2022/12/11 10:23:44;;;;;;;6.05;2.95;;;18.40;54.30;;;;;;10482804;28;19966;-25
2022/12/11 10:28:46;;;;;;;6.63;3.40;;;18.40;54.40;;;;;;10479434;28;20084;-28
2022/12/11 10:33:58;;;;;;;6.55;3.88;;;18.30;54.30;;;;;;10482678;28;20083;-25
2022/12/11 10:39:01;;;;;;;8.05;3.38;;;18.30;54.30;;;;;;10469272;28;20135;-25
2022/12/11 10:44:14;;;;;;;;;;;17.80;55.50;;;;;;10475079;28;20122;-25
2022/12/11 10:49:25;;;;;;;4.70;3.47;;;18.20;54.60;;;;;;10478768;28;19929;-26
2022/12/11 10:54:33;;;;;;;12.73;4.43;;;18.20;54.60;;;;;;10480355;28;20159;-26
2022/12/11 10:59:40;;;;;;;11.63;6.03;;;17.80;55.30;;;;;;10471630;28;20754;-25
2022/12/11 11:04:44;;;;;;;19.10;11.57;;;16.70;58.90;;;;;;10486846;28;20090;-27
2022/12/11 11:09:47;;;;;;;15.52;7.05;;;15.40;54.70;;;;;;10480096;28;20121;-26
2022/12/11 11:14:58;;;;;;;;;;;16.80;57.90;;;;;;10481993;28;20062;-28
2022/12/11 11:20:13;;;;;;;13.43;7.07;;;15.30;59.40;;;;;;10472633;28;19921;-27
2022/12/11 11:25:20;;;;;;;11.20;5.65;;;16.10;59.00;;;;;;10487638;28;20059;-30
2022/12/11 11:30:25;;;;;;;11.13;6.20;;;17.00;57.50;;;;;;10466825;28;20044;-26
2022/12/11 11:35:30;;;;;;;14.05;8.10;;;17.10;57.20;;;;;;10481707;28;20056;-25
2022/12/11 11:40:39;;;;;;;28.65;14.85;;;17.20;55.10;;;;;;10480761;28;20099;-27
2022/12/11 11:45:46;;;;;;;31.27;16.95;;;13.30;54.00;;;;;;10484948;28;20091;-27
2022/12/11 11:50:51;;;;;;;22.45;11.48;;;12.10;72.10;;;;;;10487704;28;20075;-27
2022/12/11 11:56:02;;;;;;;24.38;12.98;;;14.40;69.60;;;;;;10480123;28;20060;-25
2022/12/11 12:01:09;;;;;;;22.15;12.52;;;16.80;59.20;;;;;;10488780;28;20098;-27
2022/12/11 12:06:21;;;;;;;27.05;15.93;;;15.10;58.70;;;;;;10489000;28;20049;-28
2022/12/11 12:11:34;;;;;;;21.40;12.52;;;13.60;62.40;;;;;;10480961;28;20060;-26
2022/12/11 12:16:46;;;;;;;13.30;6.97;;;16.30;53.40;;;;;;10494397;28;20052;-26
2022/12/11 12:21:53;;;;;;;12.30;6.63;;;17.20;56.90;;;;;;10488268;28;20079;-32
2022/12/11 12:27:00;;;;;;;22.50;11.65;;;17.40;56.10;;;;;;10484532;28;20166;-26
2022/12/11 12:32:09;;;;;;;21.35;12.60;;;17.10;56.60;;;;;;10470764;28;20131;-27
2022/12/11 12:37:25;;;;;;;32.47;14.88;;;17.30;55.80;;;;;;10473483;28;20048;-27
2022/12/11 12:42:34;;;;;;;21.35;11.38;;;16.80;57.80;;;;;;10468182;28;20489;-27
2022/12/11 12:47:36;;;;;;;22.15;12.32;;;17.20;55.70;;;;;;10475950;28;20055;-25
2022/12/11 12:52:41;;;;;;;24.75;12.55;;;17.50;54.70;;;;;;10470397;28;20122;-26
2022/12/11 12:57:46;;;;;;;12.27;6.55;;;17.60;54.30;;;;;;10473558;28;20082;-26
2022/12/11 13:02:50;;;;;;;9.35;5.90;;;17.90;53.90;;;;;;10471818;28;20048;-26
2022/12/11 13:07:55;;;;;;;9.57;5.95;;;17.90;53.90;;;;;;10463115;28;20102;-27
2022/12/11 13:12:58;;;;;;;8.25;5.38;;;18.00;53.90;;;;;;10489474;28;20106;-27
2022/12/11 13:18:02;;;;;;;8.55;5.25;;;18.00;54.20;;;;;;10481246;28;20098;-28
2022/12/11 13:23:18;;;;;;;10.50;7.25;;;17.40;55.20;;;;;;10474666;28;20548;-28
2022/12/11 13:28:27;;;;;;;7.95;4.88;;;17.60;53.90;;;;;;10469083;28;20844;-25
2022/12/11 13:33:30;;;;;;;9.27;5.47;;;18.00;53.00;;;;;;10483282;28;20049;-27
2022/12/11 13:38:33;;;;;;;10.82;4.35;;;18.20;53.20;;;;;;10480091;28;20549;-27
2022/12/11 13:43:36;;;;;;;8.68;5.22;;;18.20;52.70;;;;;;10477300;28;20052;-28
2022/12/11 13:48:43;;;;;;;7.50;4.78;;;18.20;52.70;;;;;;10479288;28;20044;-27
2022/12/11 13:53:47;;;;;;;7.80;4.90;;;18.20;52.50;;;;;;10484720;28;20080;-33
2022/12/11 13:58:49;;;;;;;7.43;4.95;;;18.20;52.40;;;;;;10471151;28;20041;-27
2022/12/11 14:03:55;;;;;;;7.35;4.35;;;18.20;52.50;;;;;;10483073;28;20044;-27
2022/12/11 14:09:01;;;;;;;7.53;4.47;;;18.20;52.30;;;;;;10472329;28;20097;-27
2022/12/11 14:14:05;;;;;;;7.60;5.07;;;18.20;52.10;;;;;;10486593;28;20052;-27
2022/12/11 14:19:09;;;;;;;10.00;4.68;;;18.20;52.00;;;;;;10478239;28;20052;-27
2022/12/11 14:24:13;;;;;;;7.78;5.05;;;18.10;52.30;;;;;;10477590;28;20041;-26
2022/12/11 14:29:24;;;;;;;8.52;4.75;;;18.20;51.90;;;;;;10491319;28;20468;-28
2022/12/11 14:34:32;;;;;;;6.70;4.63;;;18.20;51.70;;;;;;10461296;28;20048;-27
2022/12/11 14:39:39;;;;;;;5.78;3.88;;;18.20;51.70;;;;;;10463274;28;20041;-26
2022/12/11 14:44:48;;;;;;;6.53;4.50;;;18.30;51.60;;;;;;10463577;28;20569;-26
2022/12/11 14:49:57;;;;;;;8.10;4.53;;;18.00;51.60;;;;;;10476877;28;20037;-29
2022/12/11 14:55:06;;;;;;;7.85;4.97;;;18.10;51.70;;;;;;10477956;28;20052;-26
2022/12/11 15:00:20;;;;;;;10.95;4.15;;;17.90;51.90;;;;;;10467101;28;20052;-26
2022/12/11 15:05:22;;;;;;;4.78;3.70;;;18.20;51.50;;;;;;10473820;28;20064;-26
2022/12/11 15:10:31;;;;;;;5.50;4.15;;;18.10;51.70;;;;;;10482369;28;20048;-27
2022/12/11 15:15:43;;;;;;;7.93;4.55;;;17.90;51.60;;;;;;10474116;28;20084;-27
2022/12/11 15:20:52;;;;;;;7.70;4.18;;;18.10;51.60;;;;;;10482023;28;20102;-28
2022/12/11 15:25:58;;;;;;;6.07;3.63;;;18.10;51.30;;;;;;10468337;28;20140;-28
2022/12/11 15:31:03;;;;;;;11.35;5.63;;;18.10;51.50;;;;;;10473573;28;20040;-27
2022/12/11 15:36:06;;;;;;;10.27;5.75;;;17.00;49.20;;;;;;10482001;28;20044;-28
2022/12/11 15:41:14;;;;;;;4.72;3.83;;;16.70;54.10;;;;;;10486930;28;20052;-27
2022/12/11 15:46:16;;;;;;;5.35;3.80;;;17.90;51.70;;;;;;10493395;28;20118;-26
2022/12/11 15:51:18;;;;;;;6.75;3.65;;;17.90;51.30;;;;;;10483824;28;20106;-26
2022/12/11 15:56:21;;;;;;;3.80;2.58;;;18.00;51.20;;;;;;10506149;28;20049;-29
2022/12/11 16:01:23;;;;;;;5.65;3.20;;;18.10;51.10;;;;;;10488807;28;20057;-26
2022/12/11 16:06:25;;;;;;;7.68;4.80;;;17.80;51.60;;;;;;10481861;28;20044;-26
2022/12/11 16:11:29;;;;;;;7.70;4.97;;;18.00;51.30;;;;;;10490160;28;20135;-27
2022/12/11 16:16:31;;;;;;;9.27;6.07;;;18.00;51.10;;;;;;10490303;28;20079;-31
2022/12/11 16:21:33;;;;;;;10.73;6.10;;;18.00;51.10;;;;;;10485018;28;20045;-27
2022/12/11 16:26:37;;;;;;;;;;;18.00;51.10;;;;;;10489860;28;20847;-28
2022/12/11 16:31:39;;;;;;;7.95;5.10;;;17.90;51.20;;;;;;10490542;28;19924;-28
2022/12/11 16:36:41;;;;;;;7.28;4.45;;;18.00;51.30;;;;;;10481399;28;20040;-26
2022/12/11 16:41:44;;;;;;;10.38;6.25;;;17.90;51.30;;;;;;10481205;28;20049;-27
2022/12/11 16:46:46;;;;;;;6.43;4.38;;;18.00;51.30;;;;;;10479920;28;20051;-28
2022/12/11 16:51:48;;;;;;;8.63;5.05;;;17.50;51.80;;;;;;10476523;28;20217;-29
2022/12/11 16:56:52;;;;;;;6.13;4.10;;;17.80;51.40;;;;;;10473178;28;20246;-31
2022/12/11 17:01:54;;;;;;;6.82;4.40;;;17.80;51.20;;;;;;10486835;28;20490;-28
2022/12/11 17:06:56;;;;;;;;;;;17.90;51.10;;;;;;10485477;28;20554;-26
2022/12/11 17:11:59;;;;;;;5.78;3.97;;;17.80;51.20;;;;;;10491793;28;20347;-27
2022/12/11 17:17:01;;;;;;;5.85;4.25;;;17.90;51.20;;;;;;10488449;28;20107;-29
2022/12/11 17:22:03;;;;;;;6.55;4.10;;;17.80;51.20;;;;;;10488235;28;20048;-27
2022/12/11 17:27:07;;;;;;;6.50;3.67;;;17.80;51.20;;;;;;10490282;28;20056;-27
2022/12/11 17:32:09;;;;;;;9.20;3.88;;;17.70;51.30;;;;;;10489432;28;20052;-25
2022/12/11 17:37:11;;;;;;;8.55;4.32;;;17.80;51.30;;;;;;10482926;28;20056;-28
2022/12/11 17:42:14;;;;;;;6.22;4.25;;;17.80;51.20;;;;;;10485473;28;20055;-26
2022/12/11 17:47:16;;;;;;;5.88;4.40;;;17.70;51.30;;;;;;10490024;28;20048;-28
2022/12/11 17:52:18;;;;;;;5.28;3.92;;;17.50;51.80;;;;;;10486792;28;20041;-27
2022/12/11 17:57:21;;;;;;;6.80;4.05;;;17.60;51.40;;;;;;10471102;28;20110;-26
2022/12/11 18:02:23;;;;;;;5.70;3.75;;;17.60;52.00;;;;;;10475358;28;20045;-28
2022/12/11 18:07:25;;;;;;;4.18;3.08;;;17.60;51.30;;;;;;10468077;28;20558;-26
2022/12/11 18:12:29;;;;;;;5.10;3.03;;;17.70;51.20;;;;;;10469417;28;20092;-27
2022/12/11 18:17:31;;;;;;;4.32;2.88;;;17.60;52.00;;;;;;10484953;28;20174;-28
2022/12/11 18:22:33;;;;;;;7.82;3.30;;;17.40;52.50;;;;;;10489285;28;20056;-27
2022/12/11 18:27:37;;;;;;;5.90;3.37;;;17.30;52.80;;;;;;10472876;28;20048;-25
2022/12/11 18:32:39;;;;;;;5.03;3.28;;;17.30;52.90;;;;;;10483214;28;20555;-27
2022/12/11 18:37:41;;;;;;;6.20;3.92;;;17.20;53.00;;;;;;10485181;28;20702;-28
2022/12/11 18:42:44;;;;;;;7.50;4.03;;;17.30;53.10;;;;;;10480511;28;20040;-26
2022/12/11 18:47:47;;;;;;;6.40;3.35;;;17.30;53.10;;;;;;10489351;28;20106;-30
2022/12/11 18:52:53;;;;;;;5.13;3.33;;;17.30;52.90;;;;;;10471597;28;20454;-27
2022/12/11 18:57:57;;;;;;;6.95;3.90;;;17.30;52.90;;;;;;10479387;28;20055;-28
2022/12/11 19:02:59;;;;;;;5.20;3.80;;;17.30;53.00;;;;;;10485240;28;20374;-26
2022/12/11 19:08:01;;;;;;;6.00;3.95;;;17.30;53.10;;;;;;10471923;28;20052;-27
2022/12/11 19:13:04;;;;;;;5.07;3.35;;;17.30;53.20;;;;;;10479849;28;20317;-26
2022/12/11 19:18:06;;;;;;;6.88;3.80;;;17.30;53.10;;;;;;10467428;28;20071;-27
2022/12/11 19:23:08;;;;;;;6.47;3.90;;;17.30;53.20;;;;;;10481251;28;20044;-30
2022/12/11 19:28:11;;;;;;;4.80;3.55;;;17.30;53.30;;;;;;10482995;28;20568;-26
2022/12/11 19:33:14;;;;;;;4.57;3.28;;;17.30;53.40;;;;;;10475896;28;20138;-27
2022/12/11 19:38:16;;;;;;;;;;;17.40;53.40;;;;;;10472717;28;20055;-28
2022/12/11 19:43:19;;;;;;;6.43;4.10;;;17.30;53.50;;;;;;10479748;28;19995;-27
2022/12/11 19:48:21;;;;;;;9.15;4.70;;;17.30;53.60;;;;;;10475251;28;20048;-26
2022/12/11 19:53:23;;;;;;;11.77;4.83;;;17.30;53.60;;;;;;10479990;28;20048;-26
2022/12/11 19:58:27;;;;;;;8.60;5.18;;;17.30;53.70;;;;;;10476931;28;20110;-26
2022/12/11 20:03:29;;;;;;;9.27;5.65;;;17.30;53.70;;;;;;10479965;28;20041;-27
2022/12/11 20:08:32;;;;;;;10.55;6.90;;;17.30;53.70;;;;;;10478036;28;20044;-28
2022/12/11 20:13:35;;;;;;;16.98;7.47;;;17.20;53.70;;;;;;10476998;28;20482;-28
2022/12/11 20:18:37;;;;;;;15.13;7.75;;;17.20;53.70;;;;;;10477808;28;20469;-30
2022/12/11 20:23:40;;;;;;;14.45;7.40;;;17.20;53.80;;;;;;10481884;28;20040;-26
2022/12/11 20:28:46;;;;;;;16.08;8.70;;;17.20;53.80;;;;;;10471569;28;20449;-29
2022/12/11 20:33:48;;;;;;;15.02;8.80;;;17.20;53.80;;;;;;10469419;28;20049;-27
2022/12/11 20:38:51;;;;;;;18.23;8.80;;;17.20;53.80;;;;;;10489296;28;20124;-26
2022/12/11 20:43:54;;;;;;;15.15;8.95;;;17.10;53.70;;;;;;10486448;28;20049;-27
2022/12/11 20:48:58;;;;;;;21.42;10.55;;;17.20;53.60;;;;;;10482459;28;20087;-28
2022/12/11 20:54:00;;;;;;;18.50;9.48;;;17.10;53.70;;;;;;10492670;28;20138;-30
2022/12/11 20:59:03;;;;;;;17.08;10.10;;;17.10;53.70;;;;;;10489708;28;20052;-26
2022/12/11 21:04:05;;;;;;;23.48;10.70;;;17.10;53.70;;;;;;10492630;28;20052;-28
2022/12/11 21:09:09;;;;;;;17.37;10.97;;;17.10;53.80;;;;;;10480425;28;20045;-29
2022/12/11 21:14:13;;;;;;;18.67;10.23;;;17.10;53.70;;;;;;10474770;28;20531;-30
2022/12/11 21:19:15;;;;;;;16.58;10.02;;;17.00;53.70;;;;;;10491504;28;20053;-26
2022/12/11 21:24:20;;;;;;;18.33;10.90;;;17.10;53.70;;;;;;10486579;28;20048;-27
2022/12/11 21:29:25;;;;;;;16.98;10.50;;;17.10;53.60;;;;;;10501191;28;20087;-26
2022/12/11 21:34:27;;;;;;;17.98;11.25;;;17.10;53.60;;;;;;10468960;28;20049;-27
2022/12/11 21:39:29;;;;;;;16.38;10.15;;;17.00;53.60;;;;;;10471709;28;20048;-29
2022/12/11 21:44:32;;;;;;;13.57;8.48;;;17.00;53.70;;;;;;10489648;28;20474;-28
2022/12/11 21:49:34;;;;;;;21.73;9.05;;;17.10;53.80;;;;;;10479441;28;20048;-27
2022/12/11 21:54:37;;;;;;;15.00;8.45;;;17.10;53.80;;;;;;10484159;28;20063;-27
2022/12/11 21:59:40;;;;;;;16.50;8.27;;;17.10;54.00;;;;;;10475295;28;20040;-27
2022/12/11 22:04:42;;;;;;;15.55;8.27;;;17.10;54.10;;;;;;10490419;28;20530;-29
2022/12/11 22:09:43;;;;;;;13.40;7.10;;;17.10;54.20;;;;;;10487118;28;20056;-25
2022/12/11 22:14:47;;;;;;;10.77;6.60;;;17.00;54.20;;;;;;10486881;28;20090;-28
2022/12/11 22:19:50;;;;;;;12.73;8.40;;;17.10;54.40;;;;;;10486482;28;20481;-30
2022/12/11 22:24:52;;;;;;;10.60;5.97;;;17.00;54.30;;;;;;10478679;28;20127;-30
2022/12/11 22:29:55;;;;;;;11.07;6.75;;;17.00;54.40;;;;;;10482537;28;20632;-29
2022/12/11 22:34:57;;;;;;;11.45;6.88;;;17.00;54.40;;;;;;10472280;28;20049;-29
2022/12/11 22:39:59;;;;;;;11.27;6.47;;;17.00;54.50;;;;;;10473513;28;20547;-29
2022/12/11 22:45:03;;;;;;;12.23;7.40;;;17.00;54.50;;;;;;10459824;28;20410;-28
2022/12/11 22:50:06;;;;;;;13.23;6.90;;;16.90;54.60;;;;;;10470242;28;20048;-27
2022/12/11 22:55:08;;;;;;;10.63;6.65;;;16.90;54.60;;;;;;10478643;28;20044;-26
2022/12/11 23:00:13;;;;;;;13.60;7.15;;;16.90;54.70;;;;;;10481669;28;20095;-26
2022/12/11 23:05:15;;;;;;;13.15;6.35;;;16.90;54.60;;;;;;10479856;28;20110;-27
2022/12/11 23:10:17;;;;;;;11.27;6.57;;;16.90;54.80;;;;;;10484285;28;20044;-27
2022/12/11 23:15:20;;;;;;;11.83;6.47;;;16.90;54.80;;;;;;10484765;28;20100;-26
2022/12/11 23:20:22;;;;;;;15.07;6.07;;;16.90;54.80;;;;;;10489148;28;20486;-26
2022/12/11 23:25:24;;;;;;;8.93;5.93;;;16.90;54.80;;;;;;10476920;28;20095;-26
2022/12/11 23:30:27;;;;;;;8.73;5.88;;;16.90;54.90;;;;;;10474447;28;20049;-26
2022/12/11 23:35:29;;;;;;;11.23;6.32;;;16.90;54.80;;;;;;10485023;28;20040;-26
2022/12/11 23:40:31;;;;;;;9.77;6.07;;;16.90;54.70;;;;;;10468025;28;20082;-27
2022/12/11 23:45:34;;;;;;;8.93;5.53;;;16.80;55.00;;;;;;10480421;28;20466;-26
2022/12/11 23:50:36;;;;;;;9.45;6.20;;;16.80;55.10;;;;;;10475286;28;20258;-29
2022/12/11 23:55:39;;;;;;;11.02;5.72;;;16.80;55.00;;;;;;10488187;28;20110;-26
